Time;durP1;ratioP1;P1;durP2;ratioP2;P2;SDS_P1;SDS_P2;PMS_P1;PMS_P2;Temp;Humidity;BMP_temperature;BMP_pressure;BME280_temperature;BME280_humidity;BME280_pressure;Samples;Min_cycle;Max_cycle;Signal;HPM_P1;HPM_P2
2022/12/31 00:01:15;;;;;;;7.30;6.53;;;10.30;99.90;;;;;;5054710;28;20215;-51
2022/12/31 00:03:41;;;;;;;7.03;6.23;;;10.30;99.90;;;;;;5054020;28;20179;-55
2022/12/31 00:06:18;;;;;;;7.70;6.73;;;10.30;99.90;;;;;;5054635;28;20175;-54
2022/12/31 00:08:44;;;;;;;7.30;6.60;;;10.30;99.90;;;;;;5054323;28;20205;-55
2022/12/31 00:11:10;;;;;;;7.30;6.60;;;10.20;99.90;;;;;;5054343;28;20218;-52
2022/12/31 00:13:36;;;;;;;7.80;6.63;;;10.20;99.90;;;;;;5054253;28;20179;-53
2022/12/31 00:16:11;;;;;;;7.87;6.70;;;10.20;99.90;;;;;;5054265;28;20182;-55
2022/12/31 00:18:37;;;;;;;7.30;6.60;;;10.20;99.90;;;;;;5054499;28;20220;-53
2022/12/31 00:21:05;;;;;;;7.47;6.70;;;10.10;99.90;;;;;;5054014;28;20187;-53
2022/12/31 00:23:31;;;;;;;8.10;7.30;;;10.10;99.90;;;;;;5054271;28;20170;-51
2022/12/31 00:26:02;;;;;;;7.63;6.33;;;10.20;99.90;;;;;;5054001;28;20175;-52
2022/12/31 00:28:27;;;;;;;8.43;6.80;;;10.20;99.90;;;;;;5046428;28;20258;-51
2022/12/31 00:30:53;;;;;;;7.50;6.67;;;10.20;99.90;;;;;;5052926;28;20199;-55
2022/12/31 00:33:18;;;;;;;7.17;6.47;;;10.20;99.90;;;;;;5054101;28;20218;-55
2022/12/31 00:35:44;;;;;;;9.57;7.40;;;10.20;99.90;;;;;;5052270;28;20210;-54
2022/12/31 00:38:09;;;;;;;8.20;7.40;;;10.20;99.90;;;;;;5054100;28;20221;-51
2022/12/31 00:40:35;;;;;;;8.27;7.47;;;10.10;99.90;;;;;;5053919;28;20210;-58
2022/12/31 00:43:00;;;;;;;8.10;7.13;;;10.10;99.90;;;;;;5053846;28;20190;-52
2022/12/31 00:45:26;;;;;;;7.57;6.87;;;10.10;99.90;;;;;;5053725;28;20548;-52
2022/12/31 00:47:51;;;;;;;8.60;7.47;;;10.20;99.90;;;;;;5053526;28;20699;-53
2022/12/31 00:50:17;;;;;;;8.47;7.47;;;10.20;99.90;;;;;;5053843;28;20691;-54
2022/12/31 00:52:43;;;;;;;7.37;6.67;;;10.10;99.90;;;;;;5054025;28;20171;-51
2022/12/31 00:55:08;;;;;;;7.57;6.83;;;10.10;99.90;;;;;;5052578;28;20190;-54
2022/12/31 00:57:34;;;;;;;7.60;6.90;;;10.10;99.90;;;;;;5053786;28;20179;-51
2022/12/31 00:59:59;;;;;;;8.20;7.20;;;10.10;99.90;;;;;;5053983;28;20286;-51
2022/12/31 01:02:25;;;;;;;8.57;7.10;;;10.30;99.90;;;;;;5052119;28;20179;-52
2022/12/31 01:04:50;;;;;;;7.20;6.50;;;10.30;99.90;;;;;;5053149;28;20182;-54
2022/12/31 01:07:16;;;;;;;6.83;6.13;;;10.30;99.90;;;;;;5053511;28;20218;-51
2022/12/31 01:09:41;;;;;;;7.00;6.30;;;10.30;99.90;;;;;;5053287;28;20179;-52
2022/12/31 01:12:07;;;;;;;7.17;6.43;;;10.40;99.90;;;;;;5053394;28;20296;-55
2022/12/31 01:14:33;;;;;;;7.70;6.90;;;10.60;99.90;;;;;;5052876;28;20207;-51
2022/12/31 01:16:58;;;;;;;6.40;5.80;;;10.50;99.90;;;;;;5053048;28;20175;-54
2022/12/31 01:19:27;;;;;;;6.40;5.80;;;12.50;99.90;;;;;;5052930;28;20195;-53
2022/12/31 01:21:53;;;;;;;6.57;5.97;;;10.60;99.90;;;;;;5053148;28;20688;-51
2022/12/31 01:24:19;;;;;;;6.80;5.93;;;10.70;99.90;;;;;;5052762;28;20186;-51
2022/12/31 01:26:46;;;;;;;6.97;6.27;;;10.70;99.90;;;;;;5053187;28;20199;-53
2022/12/31 01:29:12;;;;;;;8.13;6.37;;;10.70;99.90;;;;;;5052915;28;20171;-51
2022/12/31 01:31:38;;;;;;;6.97;6.27;;;10.60;99.90;;;;;;5052954;28;20195;-53
2022/12/31 01:34:05;;;;;;;7.33;6.63;;;10.60;99.90;;;;;;5052675;28;20254;-53
2022/12/31 01:36:32;;;;;;;6.40;5.80;;;10.60;99.90;;;;;;5052749;28;20229;-51
2022/12/31 01:38:59;;;;;;;8.07;6.10;;;10.70;99.90;;;;;;5052964;28;20189;-53
2022/12/31 01:41:28;;;;;;;7.40;6.60;;;10.70;99.90;;;;;;5052711;28;20703;-53
2022/12/31 01:43:57;;;;;;;8.67;6.80;;;10.80;99.90;;;;;;5052419;28;20254;-53
2022/12/31 01:46:43;;;;;;;7.00;6.30;;;10.80;99.90;;;;;;5052406;28;20268;-52
2022/12/31 01:49:18;;;;;;;7.57;6.87;;;10.90;99.90;;;;;;5052263;28;20190;-52
2022/12/31 01:51:49;;;;;;;6.80;6.10;;;10.90;99.90;;;;;;5052464;28;20939;-52
2022/12/31 01:54:21;;;;;;;6.70;6.10;;;10.90;99.90;;;;;;5052252;28;20179;-52
2022/12/31 01:56:48;;;;;;;7.33;6.63;;;10.90;99.90;;;;;;5052386;28;20214;-51
2022/12/31 01:59:16;;;;;;;8.30;6.67;;;11.00;99.90;;;;;;5052594;28;20181;-52
2022/12/31 02:01:42;;;;;;;7.70;6.90;;;10.90;99.90;;;;;;5052290;28;20621;-52
2022/12/31 02:04:12;;;;;;;7.77;6.97;;;10.90;99.90;;;;;;5052173;28;20201;-51
2022/12/31 02:06:46;;;;;;;7.87;7.13;;;11.90;99.90;;;;;;5051980;28;20205;-53
2022/12/31 02:09:12;;;;;;;7.40;6.70;;;10.80;99.90;;;;;;5051954;28;20204;-52
2022/12/31 02:11:38;;;;;;;8.63;7.77;;;10.90;99.90;;;;;;5052109;28;20206;-51
2022/12/31 02:14:17;;;;;;;8.37;7.57;;;10.80;99.90;;;;;;5051633;28;20257;-54
2022/12/31 02:17:20;;;;;;;7.87;7.07;;;10.70;99.90;;;;;;5052276;28;20257;-51
2022/12/31 02:19:48;;;;;;;8.00;7.03;;;10.70;99.90;;;;;;5051741;28;20175;-54
2022/12/31 02:22:47;;;;;;;7.90;7.20;;;10.80;99.90;;;;;;5052152;28;20174;-56
2022/12/31 02:25:35;;;;;;;8.67;7.73;;;10.80;99.90;;;;;;5051748;28;20190;-52
2022/12/31 02:28:46;;;;;;;9.20;8.30;;;10.80;99.90;;;;;;5051905;28;20191;-52
2022/12/31 02:31:16;;;;;;;8.20;7.40;;;10.80;99.90;;;;;;5047927;28;20207;-52
2022/12/31 02:33:56;;;;;;;8.63;7.70;;;12.20;99.90;;;;;;5051699;28;20168;-54
2022/12/31 02:36:32;;;;;;;8.17;7.20;;;10.80;99.90;;;;;;5052089;28;20185;-51
2022/12/31 02:38:59;;;;;;;8.30;7.50;;;10.90;99.90;;;;;;5051552;28;20284;-54
2022/12/31 02:44:28;;;;;;;8.90;8.10;;;10.90;99.90;;;;;;5048926;28;20178;-51
2022/12/31 02:46:54;;;;;;;8.40;7.30;;;10.90;99.90;;;;;;5052005;28;20206;-52
2022/12/31 02:49:26;;;;;;;8.97;7.67;;;10.80;99.90;;;;;;5052454;28;20636;-53
2022/12/31 02:52:13;;;;;;;7.90;7.10;;;10.90;99.90;;;;;;5052211;28;20579;-53
2022/12/31 02:55:17;;;;;;;8.97;8.07;;;10.90;99.90;;;;;;5051938;28;20228;-53
2022/12/31 02:57:57;;;;;;;9.90;8.90;;;10.90;99.90;;;;;;4971455;28;20193;-52
2022/12/31 03:03:07;;;;;;;8.17;7.37;;;11.00;99.90;;;;;;4970767;28;20277;-51
2022/12/31 03:05:43;;;;;;;8.23;7.43;;;11.00;99.90;;;;;;4970464;28;20178;-51
2022/12/31 03:08:09;;;;;;;7.90;7.17;;;11.00;99.90;;;;;;4970276;28;20221;-53
2022/12/31 03:10:34;;;;;;;7.40;6.70;;;11.10;99.90;;;;;;4971329;28;20215;-52
2022/12/31 03:13:02;;;;;;;9.97;7.47;;;11.00;99.90;;;;;;4970968;28;20550;-53
2022/12/31 03:15:32;;;;;;;7.63;6.87;;;11.00;99.90;;;;;;4970747;28;20217;-53
2022/12/31 03:18:01;;;;;;;7.70;6.90;;;11.00;99.90;;;;;;4971088;28;20181;-53
2022/12/31 03:23:36;;;;;;;9.03;8.13;;;11.00;99.90;;;;;;4974960;28;20329;-53
2022/12/31 03:26:09;;;;;;;7.97;7.23;;;11.00;99.90;;;;;;4974297;28;20237;-55
2022/12/31 03:28:36;;;;;;;8.00;7.20;;;11.10;99.90;;;;;;4973772;28;20185;-52
2022/12/31 03:31:03;;;;;;;8.43;7.63;;;11.00;99.90;;;;;;4974219;28;20196;-53
2022/12/31 03:33:34;;;;;;;7.53;6.20;;;11.10;99.90;;;;;;4979594;28;20174;-54
2022/12/31 03:36:04;;;;;;;8.23;6.87;;;12.20;99.90;;;;;;5055001;28;20170;-50
2022/12/31 03:38:30;;;;;;;7.77;6.93;;;11.10;99.90;;;;;;5053368;28;20175;-52
2022/12/31 03:40:55;;;;;;;7.80;7.10;;;11.10;99.90;;;;;;5054849;28;20206;-51
2022/12/31 03:43:21;;;;;;;8.53;7.63;;;11.10;99.90;;;;;;5055059;28;20194;-54
2022/12/31 03:45:51;;;;;;;7.47;6.77;;;11.10;99.90;;;;;;5054530;28;20249;-52
2022/12/31 03:48:17;;;;;;;9.57;7.97;;;11.10;99.90;;;;;;5054781;28;20238;-53
2022/12/31 03:50:42;;;;;;;8.60;7.80;;;11.10;99.90;;;;;;5054462;28;20222;-53
2022/12/31 03:53:08;;;;;;;8.37;7.57;;;11.10;99.90;;;;;;5054814;28;20199;-54
2022/12/31 03:55:34;;;;;;;8.83;7.93;;;11.10;99.90;;;;;;5054167;28;20246;-54
2022/12/31 03:57:59;;;;;;;8.73;7.83;;;11.10;99.90;;;;;;5054774;28;20194;-52
2022/12/31 04:00:25;;;;;;;9.33;7.97;;;11.20;99.90;;;;;;5054476;28;20203;-52
2022/12/31 04:02:51;;;;;;;10.30;8.10;;;11.20;99.90;;;;;;5054693;28;20281;-57
2022/12/31 04:05:17;;;;;;;8.70;7.90;;;11.20;99.90;;;;;;5054480;28;20184;-54
2022/12/31 04:07:43;;;;;;;9.23;8.33;;;11.30;99.90;;;;;;5054794;28;20191;-51
2022/12/31 04:10:11;;;;;;;9.97;8.97;;;11.20;99.90;;;;;;5054513;28;20260;-54
2022/12/31 04:12:37;;;;;;;9.00;7.83;;;11.10;99.90;;;;;;5055642;28;20169;-50
2022/12/31 04:15:03;;;;;;;9.30;8.40;;;11.20;99.90;;;;;;5036407;28;20175;-54
2022/12/31 04:17:28;;;;;;;9.70;8.70;;;11.20;99.90;;;;;;5054243;28;20188;-51
2022/12/31 04:19:54;;;;;;;9.47;8.57;;;11.10;99.90;;;;;;5054110;28;20260;-51
2022/12/31 04:22:20;;;;;;;10.00;9.07;;;11.10;99.90;;;;;;5054083;28;20175;-52
2022/12/31 04:24:45;;;;;;;9.73;8.73;;;11.10;99.90;;;;;;5053817;28;20702;-55
2022/12/31 04:27:12;;;;;;;8.83;8.03;;;11.10;99.90;;;;;;5053905;28;20260;-51
2022/12/31 04:29:38;;;;;;;10.33;9.17;;;11.20;99.90;;;;;;5053761;28;20679;-54
2022/12/31 04:32:05;;;;;;;9.73;8.83;;;11.10;99.90;;;;;;5053695;28;20199;-55
2022/12/31 04:34:31;;;;;;;10.10;9.20;;;12.70;99.90;;;;;;5053845;28;20202;-52
2022/12/31 04:36:57;;;;;;;10.77;9.77;;;11.20;99.90;;;;;;5054095;28;20747;-50
2022/12/31 04:39:23;;;;;;;9.37;8.47;;;11.20;99.90;;;;;;5052578;28;20183;-53
2022/12/31 04:41:49;;;;;;;10.47;9.37;;;11.30;99.90;;;;;;5053822;28;20191;-54
2022/12/31 04:44:15;;;;;;;10.17;8.40;;;11.20;99.90;;;;;;5053275;28;20201;-51
2022/12/31 04:46:40;;;;;;;9.90;8.47;;;12.50;99.90;;;;;;5053850;28;20254;-51
2022/12/31 04:49:06;;;;;;;10.60;9.50;;;11.10;99.90;;;;;;5053636;28;20171;-50
2022/12/31 04:51:32;;;;;;;9.43;8.53;;;11.10;99.90;;;;;;5053802;28;20687;-51
2022/12/31 04:53:58;;;;;;;9.70;8.80;;;11.10;99.90;;;;;;5053093;28;20181;-50
2022/12/31 04:56:24;;;;;;;10.43;9.33;;;11.10;99.90;;;;;;5053661;28;20186;-55
2022/12/31 04:58:50;;;;;;;9.90;8.63;;;11.10;99.90;;;;;;5053521;28;20172;-53
2022/12/31 05:01:16;;;;;;;9.83;8.87;;;11.00;99.90;;;;;;5053554;28;20195;-52
2022/12/31 05:03:41;;;;;;;9.10;8.20;;;11.00;99.90;;;;;;5051974;28;20274;-54
2022/12/31 05:06:11;;;;;;;9.70;8.70;;;11.10;99.90;;;;;;5053319;28;20175;-51
2022/12/31 05:08:37;;;;;;;9.30;8.40;;;11.10;99.90;;;;;;5053505;28;20221;-53
2022/12/31 05:11:03;;;;;;;10.90;8.87;;;11.10;99.90;;;;;;5052996;28;20211;-56
2022/12/31 05:13:28;;;;;;;9.83;8.93;;;11.10;99.90;;;;;;5053348;28;20198;-52
2022/12/31 05:15:54;;;;;;;9.70;8.70;;;11.20;99.90;;;;;;5053023;28;20163;-52
2022/12/31 05:18:19;;;;;;;10.47;9.40;;;11.20;99.90;;;;;;5053131;28;20171;-52
2022/12/31 05:20:46;;;;;;;9.53;8.63;;;11.20;99.90;;;;;;5052853;28;20202;-54
2022/12/31 05:23:14;;;;;;;9.90;9.00;;;11.20;99.90;;;;;;5053026;28;20179;-51
2022/12/31 05:25:41;;;;;;;8.77;7.97;;;11.10;99.90;;;;;;5052634;28;20175;-54
2022/12/31 05:28:07;;;;;;;9.60;8.70;;;11.10;99.90;;;;;;5053029;28;20258;-51
2022/12/31 05:30:33;;;;;;;10.47;9.47;;;11.10;99.90;;;;;;5052772;28;20365;-51
2022/12/31 05:32:58;;;;;;;10.80;8.97;;;11.10;99.90;;;;;;5052728;28;20178;-51
2022/12/31 05:35:24;;;;;;;9.63;8.70;;;11.40;99.90;;;;;;5052519;28;20659;-52
2022/12/31 05:37:49;;;;;;;9.70;8.60;;;11.10;99.90;;;;;;5052670;28;20563;-51
2022/12/31 05:40:15;;;;;;;9.87;8.80;;;11.10;99.90;;;;;;5052733;28;20191;-51
2022/12/31 05:42:40;;;;;;;9.47;8.57;;;11.10;99.90;;;;;;5051709;28;20183;-52
2022/12/31 05:45:07;;;;;;;10.13;9.13;;;11.00;99.90;;;;;;5051130;28;20179;-50
2022/12/31 05:47:32;;;;;;;9.03;8.13;;;11.00;99.90;;;;;;5052359;28;20199;-51
2022/12/31 05:49:58;;;;;;;10.70;8.83;;;10.90;99.90;;;;;;5052532;28;20281;-53
2022/12/31 05:52:23;;;;;;;10.07;9.07;;;10.90;99.90;;;;;;5052466;28;20206;-52
2022/12/31 05:54:49;;;;;;;9.50;8.50;;;10.80;99.90;;;;;;5051910;28;20225;-51
2022/12/31 05:57:14;;;;;;;10.03;8.97;;;10.80;99.90;;;;;;5052451;28;20182;-51
2022/12/31 05:59:40;;;;;;;9.90;8.90;;;11.00;99.90;;;;;;5052266;28;20254;-51
2022/12/31 06:02:05;;;;;;;10.87;9.77;;;11.00;99.90;;;;;;5052345;28;20183;-52
2022/12/31 06:04:31;;;;;;;10.83;9.73;;;11.00;99.90;;;;;;5052015;28;20262;-51
2022/12/31 06:06:56;;;;;;;10.63;9.57;;;10.90;99.90;;;;;;5052231;28;20716;-53
2022/12/31 06:09:22;;;;;;;10.27;9.27;;;11.10;99.90;;;;;;5052202;28;20552;-55
2022/12/31 06:11:48;;;;;;;10.10;9.00;;;11.00;99.90;;;;;;5052217;28;20634;-50
2022/12/31 06:14:13;;;;;;;11.40;10.30;;;11.10;99.90;;;;;;5051784;28;20171;-51
2022/12/31 06:16:40;;;;;;;10.77;9.67;;;11.10;99.90;;;;;;5052300;28;20278;-54
2022/12/31 06:19:06;;;;;;;10.20;9.20;;;11.10;99.90;;;;;;5052221;28;20660;-51
2022/12/31 06:21:32;;;;;;;11.13;9.50;;;11.10;99.90;;;;;;5051786;28;20210;-54
2022/12/31 06:23:58;;;;;;;9.87;8.87;;;11.10;99.90;;;;;;5050641;28;20179;-54
2022/12/31 06:26:24;;;;;;;10.27;9.27;;;11.20;99.90;;;;;;5051834;28;20257;-54
2022/12/31 06:28:50;;;;;;;9.77;8.77;;;11.20;99.90;;;;;;5052177;28;20258;-52
2022/12/31 06:31:15;;;;;;;11.03;9.93;;;11.20;99.90;;;;;;5051842;28;20604;-54
2022/12/31 06:33:41;;;;;;;9.60;8.70;;;11.30;99.90;;;;;;5051578;28;20733;-54
2022/12/31 06:36:10;;;;;;;10.60;9.10;;;11.30;99.90;;;;;;5051798;28;20258;-54
2022/12/31 06:38:39;;;;;;;10.67;8.40;;;11.30;99.90;;;;;;5051999;28;20175;-52
2022/12/31 06:41:06;;;;;;;9.97;8.97;;;11.40;99.90;;;;;;5051599;28;20686;-54
2022/12/31 06:43:33;;;;;;;10.40;9.30;;;11.30;99.90;;;;;;5051793;28;20190;-51
2022/12/31 06:46:00;;;;;;;10.03;9.03;;;11.30;99.90;;;;;;5051686;28;20182;-54
2022/12/31 06:48:25;;;;;;;10.77;9.67;;;11.30;99.90;;;;;;5051575;28;20202;-52
2022/12/31 06:50:51;;;;;;;10.37;9.37;;;11.20;99.90;;;;;;5067382;28;20629;-54
2022/12/31 06:53:16;;;;;;;11.53;10.43;;;11.20;99.90;;;;;;5071251;28;20209;-51
2022/12/31 06:55:42;;;;;;;11.33;10.13;;;11.20;99.90;;;;;;5071569;28;20178;-52
2022/12/31 06:58:12;;;;;;;11.10;9.90;;;11.20;99.90;;;;;;5071475;28;20174;-54
2022/12/31 07:01:00;;;;;;;14.07;10.23;;;11.10;99.90;;;;;;5071529;28;20201;-55
2022/12/31 07:03:37;;;;;;;11.30;10.10;;;11.10;99.90;;;;;;5071758;28;20178;-53
2022/12/31 07:06:12;;;;;;;10.17;9.17;;;11.20;99.90;;;;;;5071239;28;20174;-51
2022/12/31 07:08:59;;;;;;;11.60;9.47;;;11.10;99.90;;;;;;5071266;28;20247;-52
2022/12/31 07:11:33;;;;;;;11.80;10.57;;;11.10;99.90;;;;;;5071937;28;20228;-54
2022/12/31 07:14:08;;;;;;;12.47;11.17;;;11.20;99.90;;;;;;5071593;28;20177;-54
2022/12/31 07:17:07;;;;;;;11.90;9.70;;;11.10;99.90;;;;;;5071678;28;20169;-51
2022/12/31 07:19:58;;;;;;;12.03;10.07;;;11.10;99.90;;;;;;5071327;28;20162;-54
2022/12/31 07:22:24;;;;;;;10.40;9.40;;;11.20;99.90;;;;;;5071562;28;20174;-52
2022/12/31 07:24:50;;;;;;;10.03;9.03;;;11.10;99.90;;;;;;5071093;28;20171;-53
2022/12/31 07:27:31;;;;;;;9.77;8.77;;;11.20;99.90;;;;;;5071445;28;20655;-53
2022/12/31 07:30:09;;;;;;;10.90;9.80;;;11.20;99.90;;;;;;5071357;28;20213;-52
2022/12/31 07:32:40;;;;;;;10.47;9.37;;;11.00;99.90;;;;;;5071495;28;20166;-53
2022/12/31 07:35:31;;;;;;;10.40;9.40;;;11.00;99.90;;;;;;5071372;28;20257;-53
2022/12/31 07:38:21;;;;;;;10.77;9.33;;;11.00;99.90;;;;;;5071478;28;20177;-51
2022/12/31 07:41:06;;;;;;;9.53;8.63;;;11.00;99.90;;;;;;5071646;28;20195;-51
2022/12/31 07:43:53;;;;;;;10.70;9.60;;;11.10;99.90;;;;;;5071548;28;20568;-51
2022/12/31 07:46:43;;;;;;;10.13;8.80;;;11.10;99.90;;;;;;5071204;28;20170;-52
2022/12/31 07:49:11;;;;;;;9.53;8.60;;;11.20;99.90;;;;;;5071899;28;20221;-54
2022/12/31 07:51:38;;;;;;;9.87;8.87;;;11.30;99.90;;;;;;5071136;28;20202;-54
2022/12/31 07:54:04;;;;;;;10.10;8.80;;;11.40;99.90;;;;;;5070794;28;20175;-51
2022/12/31 07:56:29;;;;;;;8.77;7.80;;;11.40;99.90;;;;;;5071059;28;20311;-51
2022/12/31 07:59:34;;;;;;;9.80;8.80;;;11.40;99.90;;;;;;5071188;28;20171;-54
2022/12/31 08:02:13;;;;;;;9.13;8.23;;;11.40;99.90;;;;;;4989389;28;20268;-51
2022/12/31 08:05:17;;;;;;;8.37;7.57;;;11.40;99.90;;;;;;4990288;28;20177;-51
2022/12/31 08:08:09;;;;;;;7.97;7.27;;;11.40;99.90;;;;;;4953869;29;20221;-51
2022/12/31 08:10:51;;;;;;;8.23;7.43;;;11.40;99.90;;;;;;4954065;28;20262;-51
2022/12/31 08:13:17;;;;;;;7.03;6.33;;;11.50;99.90;;;;;;4954212;29;20190;-51
2022/12/31 08:15:43;;;;;;;7.60;6.90;;;11.50;99.90;;;;;;4953998;29;20648;-51
2022/12/31 08:18:09;;;;;;;8.10;7.30;;;11.60;99.90;;;;;;4953981;29;20207;-54
2022/12/31 08:20:43;;;;;;;7.37;6.50;;;11.60;99.90;;;;;;4954039;28;20682;-53
2022/12/31 08:23:30;;;;;;;6.20;5.60;;;11.60;99.90;;;;;;4953875;29;20182;-52
2022/12/31 08:26:14;;;;;;;7.63;6.87;;;11.80;99.90;;;;;;4953909;29;20238;-51
2022/12/31 08:28:45;;;;;;;6.93;6.30;;;11.70;99.90;;;;;;4953946;29;20564;-51
2022/12/31 08:31:18;;;;;;;6.80;6.10;;;11.80;99.90;;;;;;4953893;28;20202;-52
2022/12/31 08:34:03;;;;;;;6.63;6.00;;;11.70;99.90;;;;;;4953522;29;20203;-51
2022/12/31 08:36:40;;;;;;;6.70;6.00;;;11.80;99.90;;;;;;4953919;29;20174;-51
2022/12/31 08:39:30;;;;;;;8.47;5.93;;;11.90;99.90;;;;;;4990409;28;20282;-52
2022/12/31 08:41:57;;;;;;;6.90;6.10;;;11.90;99.90;;;;;;5012037;28;20201;-54
2022/12/31 08:44:51;;;;;;;7.10;6.40;;;12.00;99.90;;;;;;5053292;28;20186;-53
2022/12/31 08:47:40;;;;;;;7.77;7.07;;;12.10;99.90;;;;;;5073901;28;20742;-51
2022/12/31 08:50:11;;;;;;;10.83;7.00;;;12.00;99.90;;;;;;5073807;28;20205;-51
2022/12/31 08:52:37;;;;;;;7.20;6.33;;;12.00;99.90;;;;;;5073887;28;20178;-53
2022/12/31 08:55:03;;;;;;;7.40;6.70;;;12.10;99.90;;;;;;5073386;28;20166;-55
2022/12/31 08:58:07;;;;;;;8.37;7.40;;;12.10;99.90;;;;;;5073754;28;20662;-55
2022/12/31 09:00:34;;;;;;;7.53;6.83;;;12.20;99.90;;;;;;4991785;28;20228;-52
2022/12/31 09:03:31;;;;;;;7.83;6.93;;;12.20;99.90;;;;;;4992078;28;20181;-51
2022/12/31 09:06:31;;;;;;;7.90;7.17;;;12.20;99.90;;;;;;4991764;28;20220;-51
2022/12/31 09:09:08;;;;;;;9.63;8.63;;;12.20;99.90;;;;;;4992052;28;20184;-50
2022/12/31 09:11:56;;;;;;;9.93;8.97;;;12.20;99.90;;;;;;4991845;28;20268;-52
2022/12/31 09:14:36;;;;;;;9.03;8.13;;;12.20;99.90;;;;;;4991324;28;20176;-52
2022/12/31 09:17:23;;;;;;;9.53;7.90;;;12.30;99.90;;;;;;4990860;28;20216;-52
2022/12/31 09:19:49;;;;;;;10.17;9.17;;;12.20;99.90;;;;;;4991701;28;20177;-52
2022/12/31 09:22:15;;;;;;;9.30;8.30;;;12.20;99.90;;;;;;4991767;28;20658;-53
2022/12/31 09:24:40;;;;;;;9.30;8.37;;;12.10;99.90;;;;;;4974952;28;20189;-50
2022/12/31 09:27:18;;;;;;;9.17;8.27;;;12.10;99.90;;;;;;4991536;28;20219;-51
2022/12/31 09:30:05;;;;;;;8.63;7.70;;;12.20;99.90;;;;;;4991587;28;20209;-51
2022/12/31 09:32:52;;;;;;;8.33;7.53;;;12.20;99.90;;;;;;4991502;28;20188;-51
2022/12/31 09:35:39;;;;;;;8.37;7.53;;;12.30;99.90;;;;;;4991027;28;20177;-53
2022/12/31 09:38:23;;;;;;;8.63;7.83;;;12.40;99.90;;;;;;5072999;28;20174;-51
2022/12/31 09:41:07;;;;;;;8.40;7.60;;;12.50;99.90;;;;;;5072763;28;20197;-51
2022/12/31 09:43:45;;;;;;;8.70;7.20;;;12.70;99.90;;;;;;5072649;28;20655;-55
2022/12/31 09:46:16;;;;;;;8.03;6.83;;;12.80;99.90;;;;;;5072738;28;20249;-52
2022/12/31 09:49:28;;;;;;;8.93;7.10;;;12.80;99.90;;;;;;5072672;28;20202;-55
2022/12/31 09:52:09;;;;;;;7.47;6.77;;;12.90;99.90;;;;;;5072401;28;20267;-53
2022/12/31 09:54:52;;;;;;;8.47;6.93;;;13.30;99.90;;;;;;5072372;28;20573;-51
2022/12/31 09:57:40;;;;;;;6.70;6.00;;;13.80;99.90;;;;;;5072533;28;20167;-54
2022/12/31 10:00:27;;;;;;;6.33;5.73;;;14.30;99.90;;;;;;5072323;28;20190;-53
2022/12/31 10:03:21;;;;;;;6.93;6.33;;;15.60;99.90;;;;;;5072423;28;20163;-56
2022/12/31 10:06:09;;;;;;;6.23;5.20;;;16.60;99.90;;;;;;5072168;28;20174;-54
2022/12/31 10:09:02;;;;;;;6.57;5.97;;;16.80;99.90;;;;;;5072167;28;20675;-52
2022/12/31 10:11:39;;;;;;;7.20;6.50;;;16.70;99.90;;;;;;5073358;28;20202;-54
2022/12/31 10:14:29;;;;;;;6.90;6.20;;;16.50;99.90;;;;;;5071835;28;20555;-51
2022/12/31 10:17:13;;;;;;;7.33;5.87;;;16.20;99.90;;;;;;5072316;28;20262;-51
2022/12/31 10:19:44;;;;;;;8.80;6.00;;;16.30;99.90;;;;;;5072046;28;20171;-53
2022/12/31 10:22:40;;;;;;;6.30;5.70;;;16.40;99.90;;;;;;5072250;28;20655;-51
2022/12/31 10:25:45;;;;;;;6.83;6.17;;;16.40;99.90;;;;;;5071529;28;20171;-52
2022/12/31 10:28:35;;;;;;;6.53;5.93;;;16.40;99.90;;;;;;5071673;28;20397;-52
2022/12/31 10:31:13;;;;;;;5.93;5.43;;;16.20;99.90;;;;;;5072110;28;20186;-54
2022/12/31 10:33:44;;;;;;;6.23;5.60;;;16.00;99.90;;;;;;5071574;28;20172;-54
2022/12/31 10:36:19;;;;;;;7.37;5.40;;;15.90;99.90;;;;;;5072085;28;20197;-53
2022/12/31 10:39:03;;;;;;;5.77;5.13;;;15.70;99.90;;;;;;5071799;28;20182;-51
2022/12/31 10:42:03;;;;;;;6.50;5.60;;;15.60;99.90;;;;;;5071898;28;20749;-51
2022/12/31 10:44:58;;;;;;;5.70;5.20;;;15.50;99.90;;;;;;4989918;28;20183;-51
2022/12/31 10:47:44;;;;;;;5.87;5.27;;;15.40;99.90;;;;;;4990309;28;20207;-52
2022/12/31 10:50:46;;;;;;;5.87;4.90;;;15.40;99.90;;;;;;4989910;28;20204;-56
2022/12/31 10:53:38;;;;;;;4.83;4.43;;;15.90;99.90;;;;;;4990270;28;20169;-54
2022/12/31 10:56:40;;;;;;;4.13;3.83;;;16.40;99.90;;;;;;4990123;28;20741;-54
2022/12/31 10:59:29;;;;;;;5.37;4.87;;;16.80;99.90;;;;;;4990193;28;20178;-52
2022/12/31 11:01:57;;;;;;;6.10;4.10;;;18.10;99.90;;;;;;4990000;28;20317;-55
2022/12/31 11:04:42;;;;;;;3.80;3.50;;;20.60;99.90;;;;;;4989904;28;20654;-56
2022/12/31 11:07:25;;;;;;;3.80;3.50;;;23.00;99.90;;;;;;4990539;28;20217;-55
2022/12/31 11:10:12;;;;;;;3.92;3.55;;;23.90;99.90;;;;;;4990313;28;20184;-52
2022/12/31 11:12:56;;;;;;;4.30;3.90;;;24.00;99.90;;;;;;4991185;28;20180;-56
2022/12/31 11:15:21;;;;;;;4.43;4.03;;;23.60;99.70;;;;;;4990036;28;20328;-54
2022/12/31 11:18:08;;;;;;;5.82;4.55;;;23.00;99.70;;;;;;4989954;28;20178;-53
2022/12/31 11:20:54;;;;;;;5.63;4.95;;;22.10;99.90;;;;;;5003210;28;20200;-54
2022/12/31 11:23:48;;;;;;;4.60;4.20;;;21.40;99.90;;;;;;5071463;28;20182;-55
2022/12/31 11:26:53;;;;;;;7.17;6.57;;;20.80;99.90;;;;;;5071363;28;20232;-54
2022/12/31 11:29:39;;;;;;;10.00;9.10;;;20.10;99.90;;;;;;5071464;28;20630;-56
2022/12/31 11:32:21;;;;;;;9.90;9.00;;;19.60;99.90;;;;;;5071417;28;20179;-51
2022/12/31 11:35:04;;;;;;;6.77;6.17;;;19.10;99.90;;;;;;5071313;28;20170;-54
2022/12/31 11:37:40;;;;;;;8.27;7.47;;;18.70;99.90;;;;;;5071349;28;20182;-54
2022/12/31 11:40:44;;;;;;;9.30;8.43;;;18.30;99.90;;;;;;5072823;28;20190;-53
2022/12/31 11:43:24;;;;;;;9.10;8.03;;;18.00;99.90;;;;;;5075027;28;20178;-56
2022/12/31 11:46:04;;;;;;;7.47;6.87;;;17.70;99.90;;;;;;5074893;28;20651;-55
2022/12/31 11:48:36;;;;;;;6.37;5.87;;;17.40;99.90;;;;;;5074855;28;20248;-52
2022/12/31 11:51:42;;;;;;;9.60;7.77;;;17.20;99.90;;;;;;5074970;28;20205;-53
2022/12/31 11:54:36;;;;;;;7.47;5.70;;;17.00;99.90;;;;;;5075022;28;20171;-54
2022/12/31 11:57:15;;;;;;;5.70;5.17;;;16.90;99.90;;;;;;5074867;28;20171;-53
2022/12/31 11:59:40;;;;;;;6.23;4.97;;;16.80;99.90;;;;;;5074729;28;20170;-54
2022/12/31 12:02:25;;;;;;;5.93;5.30;;;16.70;99.90;;;;;;5073463;28;20182;-51
2022/12/31 12:04:52;;;;;;;5.73;5.23;;;16.60;99.90;;;;;;5074428;28;20175;-52
2022/12/31 12:07:18;;;;;;;5.37;4.83;;;16.60;99.90;;;;;;5074630;28;20205;-53
2022/12/31 12:09:44;;;;;;;5.20;4.70;;;16.50;99.90;;;;;;5074416;28;20236;-52
2022/12/31 12:12:10;;;;;;;6.00;4.73;;;16.50;99.90;;;;;;5074731;28;20182;-51
2022/12/31 12:14:41;;;;;;;5.37;4.87;;;16.50;99.90;;;;;;5074101;28;20178;-52
2022/12/31 12:17:16;;;;;;;6.93;5.63;;;16.40;99.90;;;;;;5074569;28;20253;-54
2022/12/31 12:19:45;;;;;;;6.30;5.70;;;16.50;99.90;;;;;;5074097;28;20174;-54
2022/12/31 12:22:18;;;;;;;8.47;7.37;;;16.40;99.90;;;;;;5074793;28;20597;-53
2022/12/31 12:25:02;;;;;;;6.87;5.37;;;16.40;99.90;;;;;;5074022;28;20198;-52
2022/12/31 12:27:31;;;;;;;5.93;5.00;;;16.30;99.90;;;;;;5074423;28;20193;-53
2022/12/31 12:29:56;;;;;;;8.40;6.37;;;16.40;99.90;;;;;;5074219;28;20193;-55
2022/12/31 12:32:25;;;;;;;9.37;7.80;;;16.20;99.90;;;;;;5074528;28;20182;-52
2022/12/31 12:34:51;;;;;;;9.63;8.73;;;16.20;99.90;;;;;;5073945;28;20260;-53
2022/12/31 12:37:23;;;;;;;9.83;8.90;;;16.20;99.90;;;;;;5074227;28;20219;-51
2022/12/31 12:40:04;;;;;;;8.90;8.00;;;16.10;99.90;;;;;;5073994;28;20175;-51
2022/12/31 12:42:30;;;;;;;7.37;6.67;;;16.00;99.90;;;;;;5074193;28;20173;-53
2022/12/31 12:45:00;;;;;;;8.27;7.57;;;15.90;99.90;;;;;;5073931;28;20201;-52
2022/12/31 12:47:27;;;;;;;9.87;8.97;;;15.90;99.90;;;;;;5073922;28;20205;-51
2022/12/31 12:49:53;;;;;;;8.77;7.97;;;15.00;99.90;;;;;;5074123;28;20169;-54
2022/12/31 12:52:28;;;;;;;14.13;12.57;;;15.80;99.90;;;;;;5073717;28;20170;-54
2022/12/31 12:55:14;;;;;;;13.10;11.70;;;15.80;99.90;;;;;;5073507;28;20184;-51
2022/12/31 12:57:49;;;;;;;10.07;9.03;;;15.80;99.90;;;;;;5073532;28;20599;-50
2022/12/31 13:00:21;;;;;;;16.30;13.93;;;15.70;99.90;;;;;;5068942;28;20210;-54
2022/12/31 13:03:08;;;;;;;10.23;9.10;;;15.70;99.90;;;;;;5052985;28;20174;-53
2022/12/31 13:06:16;;;;;;;7.67;6.93;;;15.70;99.90;;;;;;5053091;28;20167;-52
2022/12/31 13:09:06;;;;;;;6.87;6.17;;;15.70;99.90;;;;;;5053276;28;20211;-54
2022/12/31 13:11:37;;;;;;;8.30;7.50;;;15.70;99.90;;;;;;5053293;28;20256;-54
2022/12/31 13:14:17;;;;;;;6.63;6.03;;;15.70;99.90;;;;;;5053149;28;20167;-51
2022/12/31 13:17:23;;;;;;;6.73;5.83;;;15.70;99.90;;;;;;5053427;28;20167;-53
2022/12/31 13:20:07;;;;;;;7.27;6.33;;;15.60;99.90;;;;;;5053231;28;20236;-52
2022/12/31 13:22:43;;;;;;;6.87;6.17;;;15.60;99.90;;;;;;5053249;28;20210;-51
2022/12/31 13:25:21;;;;;;;6.37;5.50;;;15.60;99.90;;;;;;5053167;28;20185;-52
2022/12/31 13:27:49;;;;;;;6.20;4.97;;;15.60;99.90;;;;;;5053178;28;20206;-51
2022/12/31 13:30:30;;;;;;;6.80;4.73;;;15.60;99.90;;;;;;5053098;28;20676;-51